Leatherhead, United Kingdom
Current Conditions -  °F | °C
As of 10:50 PM on Friday 19 Dec 2014 (Local Time) from EGKK Reporting Station
Clear Clear  
Wind Chill: 36°   Ceiling: Unl
Heat Index: 41°   Visibility: 6mi
Dew Point: 37°   Wind: 8mph
Humidity: 87%   Direction: 210°SSW
Pressure: 30.24"   Gusts: NA
Location:  51.3°N, 0.33°W
Report Text: EGKK 192250Z 21007KT CAVOK 05/03 Q1024
Loading
Personal Weather Stations






























Interactive Weather Map New forecast layout! Learn more

10-Day Weather Forecast

Advertisements
Track Severe Weather on mobile